• Join FlightAware (Why Join?)
  • Login
  • US Flag 
08:10PM EDT


 

Airport Tracker/Info


-or-


 

Live Flight TrackerFlight Track Log ✈ THY2474 ✈ 22-Sep-2013 ✈ LTBA / IST - LTAF / ADA

Flight Track Log - Related Links

Times and Time Zones

All times are in EDT time to prevent confusion due to time zone crossing. See the THY2474 flight status page for this flight to view local times or setup timezone preferences in your user account.

Time Position Orientation Groundspeed Altitude Reporting Facility
EDT Latitude Longitude Course Direction KTS MPH feet Rate Location/Type
03:15PM 40.5139 29.6410 126° Southeast  Level Estimated
03:16PM 40.4472 29.7572 127° Southeast  Level Estimated
03:17PM 40.3805 29.8731 127° Southeast  Level Estimated
03:18PM 40.3136 29.9888 127° Southeast  Level Estimated
03:19PM 40.2467 30.1044 127° Southeast  Level Estimated
03:20PM 40.1796 30.2196 127° Southeast  Level Estimated
03:21PM 40.1124 30.3347 127° Southeast  Level Estimated
03:22PM 40.0451 30.4495 127° Southeast  Level Estimated
03:23PM 39.9777 30.5641 127° Southeast  Level Estimated
03:24PM 39.9101 30.6785 128° Southeast  Level Estimated
03:25PM 39.8425 30.7926 128° Southeast  Level Estimated
03:26PM 39.7747 30.9065 128° Southeast  Level Estimated
03:27PM 39.7069 31.0202 128° Southeast  Level Estimated
03:28PM 39.6389 31.1337 128° Southeast  Level Estimated
03:29PM 39.5708 31.2469 128° Southeast  Level Estimated
03:30PM 39.5026 31.3600 128° Southeast  Level Estimated
03:31PM 39.4343 31.4728 128° Southeast  Level Estimated
03:32PM 39.3659 31.5854 128° Southeast  Level Estimated
03:33PM 39.2974 31.6977 128° Southeast  Level Estimated
03:34PM 39.2287 31.8099 128° Southeast  Level Estimated
03:35PM 39.1600 31.9218 128° Southeast  Level Estimated
03:36PM 39.0911 32.0335 128° Southeast  Level Estimated
03:37PM 39.0222 32.1450 129° Southeast  Level Estimated
03:38PM 38.9531 32.2562 129° Southeast  Level Estimated
03:39PM 38.8840 32.3673 129° Southeast  Level Estimated
03:40PM 38.8147 32.4781 129° Southeast  Level Estimated
03:41PM 38.7453 32.5887 129° Southeast  Level Estimated
03:42PM 38.6758 32.6991 129° Southeast  Level Estimated
03:43PM 38.6063 32.8093 129° Southeast  Level Estimated
03:44PM 38.5366 32.9193 129° Southeast  Level Estimated
03:45PM 38.4668 33.0291 129° Southeast  Level Estimated
03:46PM 38.3969 33.1386 129° Southeast  Level Estimated
03:47PM 38.3269 33.2480 129° Southeast  Level Estimated
03:48PM 38.2568 33.3571 129° Southeast  Level Estimated
03:49PM 38.1866 33.4660 129° Southeast  Level Estimated
03:50PM 38.1163 33.5747 129° Southeast  Level Estimated
03:51PM 38.0459 33.6832 129° Southeast  Level Estimated
03:52PM 37.9754 33.7915 130° Southeast  Level Estimated
03:53PM 37.9049 33.8996 130° Southeast  Level Estimated
03:54PM 37.8342 34.0075 130° Southeast  Level Estimated
03:55PM 37.7634 34.1151 130° Southeast  Level Estimated
03:56PM 37.6925 34.2226 130° Southeast  Level Estimated
03:57PM 37.6215 34.3298 130° Southeast  Level Estimated
03:58PM 37.5504 34.4369 130° Southeast  Level Estimated
03:59PM 37.4792 34.5438 130° Southeast  Level Estimated
04:00PM 37.4080 34.6504 130° Southeast  Level Estimated
04:01PM 37.3366 34.7568 130° Southeast  Level Estimated
04:02PM 37.2651 34.8631 130° Southeast  Level Estimated
04:03PM 37.1936 34.9691 130° Southeast  Level Estimated
04:04PM 37.1219 35.0750 130° Southeast  Level Estimated
04:05PM 37.0502 35.1806 130° Southeast  Level Estimated
04:06PM 36.9822 35.2804 130° Southeast  Level Estimated
04:07PM 36.9822 35.2804 202° Southwest  Level Estimated
04:08PM 36.9822 35.2804 202° Southwest  Level Estimated
04:09PM 36.9822 35.2804 202° Southwest  Level Estimated
04:10PM 36.9822 35.2804 202° Southwest  Level Estimated
04:11PM 36.9822 35.2804 202° Southwest  Level Estimated
04:12PM 36.9822 35.2804 202° Southwest  Level Estimated
04:13PM 36.9822 35.2804 202° Southwest  Level Estimated
04:14PM 36.9822 35.2804 202° Southwest  Level Estimated
04:15PM 36.9822 35.2804 202° Southwest  Level Estimated
04:16PM 36.9822 35.2804 202° Southwest  Level Estimated
04:17PM 36.9822 35.2804 202° Southwest  Level Estimated
04:18PM 36.9822 35.2804 202° Southwest  Level Estimated
04:19PM 36.9822 35.2804 202° Southwest  Level Estimated
04:20PM 36.9822 35.2804 202° Southwest  Level Estimated
04:21PM 36.9822 35.2804 202° Southwest  Level Estimated
04:22PM 36.9822 35.2804 202° Southwest  Level Estimated